Time;durP1;ratioP1;P1;durP2;ratioP2;P2;SDS_P1;SDS_P2;PMS_P1;PMS_P2;Temp;Humidity;BMP_temperature;BMP_pressure;BME280_temperature;BME280_humidity;BME280_pressure;Samples;Min_cycle;Max_cycle;Signal;HPM_P1;HPM_P2
2023/06/21 00:04:46;;;;;;;19.40;17.50;;;;;;;20.41;68.64;98655.98;222199;1300;23297;-73
2023/06/21 00:09:48;;;;;;;18.20;16.30;;;;;;;20.35;68.89;98657.54;222240;1298;22565;-73
2023/06/21 00:14:54;;;;;;;19.70;17.40;;;;;;;20.29;69.02;98663.82;222172;1302;22557;-73
2023/06/21 00:19:56;;;;;;;19.30;17.50;;;;;;;20.22;69.25;98672.60;222253;1295;22552;-73
2023/06/21 00:24:58;;;;;;;21.00;17.80;;;;;;;20.16;69.45;98681.71;222067;1301;22554;-73
2023/06/21 00:30:11;;;;;;;19.90;17.70;;;;;;;20.10;69.67;98688.67;222161;1301;22682;-73
2023/06/21 00:35:16;;;;;;;19.20;17.10;;;;;;;20.07;69.89;98693.59;222027;1302;22578;-73
2023/06/21 00:40:22;;;;;;;19.80;16.20;;;;;;;20.06;70.10;98690.19;222167;1298;22583;-73
2023/06/21 00:45:24;;;;;;;20.00;18.00;;;;;;;20.06;70.36;98685.20;222256;1301;24247;-73
2023/06/21 00:50:27;;;;;;;20.20;17.00;;;;;;;20.06;70.38;98678.44;222224;1302;25265;-73
2023/06/21 00:55:29;;;;;;;20.10;18.00;;;;;;;20.05;70.67;98675.15;222258;1297;22583;-73
2023/06/21 01:00:37;;;;;;;18.30;16.40;;;;;;;20.04;70.85;98675.73;222159;1301;23289;-73
2023/06/21 01:05:52;;;;;;;18.90;17.00;;;;;;;20.03;70.78;98679.48;222191;1302;22558;-73
2023/06/21 01:11:23;;;;;;;20.60;18.50;;;;;;;20.01;70.86;98677.00;222234;1302;22589;-73
2023/06/21 01:16:39;;;;;;;21.00;17.60;;;;;;;19.94;70.99;98664.84;222189;1288;22599;-73
2023/06/21 01:21:42;;;;;;;19.70;17.60;;;;;;;19.83;71.04;98664.67;222294;1301;23481;-73
2023/06/21 01:27:13;;;;;;;24.20;18.20;;;;;;;19.73;71.24;98672.81;222282;1301;22562;-73
2023/06/21 01:32:18;;;;;;;24.20;18.90;;;;;;;19.64;71.56;98687.61;222173;1302;22682;-73
2023/06/21 01:37:20;;;;;;;24.90;17.70;;;;;;;19.58;71.77;98684.89;222231;1301;22789;-73
2023/06/21 01:42:22;;;;;;;20.00;17.90;;;;;;;19.54;71.89;98676.80;222208;1301;23047;-73
2023/06/21 01:47:24;;;;;;;23.10;18.50;;;;;;;19.47;71.97;98669.99;222203;1301;26139;-73
2023/06/21 01:52:27;;;;;;;21.00;17.90;;;;;;;19.39;71.99;98664.52;222341;1302;22562;-73
2023/06/21 01:57:36;;;;;;;22.40;19.00;;;;;;;19.32;72.18;98659.86;222229;1301;22560;-73
2023/06/21 02:02:47;;;;;;;21.40;19.00;;;;;;;19.23;72.45;98659.27;222222;1302;22571;-73
2023/06/21 02:07:53;;;;;;;21.50;18.70;;;;;;;19.15;72.64;98666.36;222282;1302;22578;-73
2023/06/21 02:12:55;;;;;;;23.50;19.60;;;;;;;19.08;72.87;98663.96;222251;1302;22566;-73
2023/06/21 02:18:00;;;;;;;23.20;19.50;;;;;;;18.99;73.13;98659.60;222063;1301;22607;-73
2023/06/21 02:23:02;;;;;;;20.90;18.80;;;;;;;18.93;73.29;98659.59;222068;1301;22675;-73
2023/06/21 02:28:05;;;;;;;21.20;19.00;;;;;;;18.87;73.40;98658.13;222286;1298;22565;-73
2023/06/21 02:33:07;;;;;;;22.10;19.80;;;;;;;18.80;73.57;98651.73;222197;1299;22954;-73
2023/06/21 02:38:09;;;;;;;22.70;19.00;;;;;;;18.75;73.73;98654.63;222207;1300;22580;-73
2023/06/21 02:43:11;;;;;;;21.90;19.60;;;;;;;18.69;73.78;98649.88;222334;1298;22561;-73
2023/06/21 02:48:13;;;;;;;23.30;19.50;;;;;;;18.63;73.96;98651.28;222224;1302;22573;-73
2023/06/21 02:53:16;;;;;;;21.40;19.20;;;;;;;18.60;73.93;98660.86;222063;1301;22630;-73
2023/06/21 02:58:21;;;;;;;20.70;18.50;;;;;;;18.58;74.08;98669.82;222198;1301;22537;-73
2023/06/21 03:03:23;;;;;;;21.90;19.50;;;;;;;18.60;74.17;98672.54;222259;1299;22575;-73
2023/06/21 03:08:28;;;;;;;30.00;19.00;;;;;;;18.65;74.31;98670.75;222299;1302;25481;-73
2023/06/21 03:13:40;;;;;;;22.40;19.20;;;;;;;18.73;74.33;98677.02;222318;1298;22566;-73
2023/06/21 03:19:10;;;;;;;27.20;18.60;;;;;;;18.85;74.33;98675.83;222313;1302;22577;-73
2023/06/21 03:24:17;;;;;;;20.90;18.40;;;;;;;19.24;74.22;98692.33;222313;1302;22619;-73
2023/06/21 03:29:23;;;;;;;20.00;18.00;;;;;;;19.58;73.97;98688.85;222009;1301;22574;-73
2023/06/21 03:34:26;;;;;;;20.20;17.50;;;;;;;20.00;73.56;98691.26;222282;1302;22573;-73
2023/06/21 03:39:28;;;;;;;20.00;17.90;;;;;;;20.19;73.00;98701.71;222275;1301;22571;-73
2023/06/21 03:44:30;;;;;;;20.20;18.00;;;;;;;20.30;72.76;98707.52;222321;1298;23620;-73
2023/06/21 03:49:32;;;;;;;19.50;17.40;;;;;;;20.44;72.44;98716.02;222126;1301;22579;-73
2023/06/21 03:54:35;;;;;;;32.20;19.10;;;;;;;20.59;72.24;98713.80;222226;1302;25284;-73
2023/06/21 03:59:37;;;;;;;20.30;18.30;;;;;;;20.75;72.13;98704.05;222260;1298;22573;-73
2023/06/21 04:04:42;;;;;;;20.40;18.30;;;;;;;21.06;71.69;98710.91;222212;1300;22674;-73
2023/06/21 04:09:58;;;;;;;21.20;19.00;;;;;;;21.48;71.49;98709.77;222171;1301;22566;-73
2023/06/21 04:15:05;;;;;;;22.70;18.40;;;;;;;21.74;71.01;98704.79;222175;1301;22590;-73
2023/06/21 04:20:14;;;;;;;20.60;18.10;;;;;;;21.89;70.47;98713.95;222200;1302;22586;-73
2023/06/21 04:25:18;;;;;;;20.20;18.10;;;;;;;22.02;70.33;98711.27;222228;1301;22637;-73
2023/06/21 04:30:23;;;;;;;20.20;18.20;;;;;;;22.13;70.10;98707.45;222276;1302;22549;-73
2023/06/21 04:35:25;;;;;;;24.10;19.30;;;;;;;22.22;70.01;98711.25;222280;1298;22570;-72
2023/06/21 04:40:27;;;;;;;22.10;19.00;;;;;;;22.36;70.19;98721.29;222150;1301;22580;-73
2023/06/21 04:45:48;;;;;;;;;;;;;;;22.54;70.11;98716.96;222190;1301;22570;-73
2023/06/21 04:50:53;;;;;;;22.40;17.50;;;;;;;22.72;70.14;98712.68;222210;1298;22565;-73
2023/06/21 04:55:59;;;;;;;17.90;15.50;;;;;;;22.94;70.13;98709.16;222143;1302;22605;-72
2023/06/21 05:01:02;;;;;;;17.70;15.90;;;;;;;23.17;69.14;98713.62;222130;1302;25513;-73
2023/06/21 05:06:05;;;;;;;21.00;16.30;;;;;;;23.41;68.93;98717.14;222005;1301;25313;-72
2023/06/21 05:11:08;;;;;;;19.10;16.90;;;;;;;23.69;68.41;98722.45;222131;1301;22639;-72
2023/06/21 05:16:10;;;;;;;18.30;16.50;;;;;;;23.93;67.72;98725.34;222135;1301;24838;-73
2023/06/21 05:21:13;;;;;;;18.30;16.30;;;;;;;24.09;67.14;98714.50;222137;1302;22572;-73
2023/06/21 05:26:15;;;;;;;17.70;15.80;;;;;;;24.25;66.82;98707.21;222255;1299;22611;-72
2023/06/21 05:31:20;;;;;;;17.60;15.90;;;;;;;24.47;66.35;98696.39;222138;1303;22582;-72
2023/06/21 05:36:22;;;;;;;18.50;16.60;;;;;;;24.58;65.87;98693.78;222171;1299;22570;-73
2023/06/21 05:41:24;;;;;;;18.20;16.50;;;;;;;24.67;65.72;98690.46;221855;1302;22565;-73
2023/06/21 05:46:27;;;;;;;17.30;15.50;;;;;;;24.83;65.53;98686.29;222205;1302;23307;-73
2023/06/21 05:51:31;;;;;;;19.00;16.70;;;;;;;25.01;65.19;98683.56;221888;1296;22630;-73
2023/06/21 05:56:37;;;;;;;17.60;15.80;;;;;;;25.25;64.97;98682.73;221962;1295;25329;-72
2023/06/21 06:01:40;;;;;;;17.30;15.80;;;;;;;25.60;64.66;98682.76;221757;1288;25252;-73
2023/06/21 06:06:42;;;;;;;16.80;15.20;;;;;;;25.97;64.15;98679.23;221569;1289;138121;-72
2023/06/21 06:11:44;;;;;;;16.60;15.10;;;;;;;26.30;63.48;98684.06;221760;1279;22560;-72
2023/06/21 06:16:46;;;;;;;17.00;14.80;;;;;;;26.55;62.72;98688.27;221270;1288;262740;-72
2023/06/21 06:21:48;;;;;;;15.20;13.70;;;;;;;26.79;61.64;98690.90;221651;1288;138134;-72
2023/06/21 06:26:50;;;;;;;22.60;14.90;;;;;;;26.90;60.85;98690.58;221570;1286;138231;-73
2023/06/21 06:31:52;;;;;;;14.90;13.30;;;;;;;27.09;60.32;98701.23;221419;1282;138232;-74
2023/06/21 06:37:02;;;;;;;14.90;13.50;;;;;;;27.11;59.86;98707.17;221384;1288;138136;-73
2023/06/21 06:42:16;;;;;;;14.30;12.90;;;;;;;27.15;59.88;98716.06;221436;1279;138246;-73
2023/06/21 06:47:18;;;;;;;15.10;13.70;;;;;;;27.27;59.92;98715.94;221706;1289;23727;-73
2023/06/21 06:52:21;;;;;;;14.50;13.20;;;;;;;27.54;59.72;98712.21;221567;1285;137971;-73
2023/06/21 06:57:23;;;;;;;14.50;13.20;;;;;;;27.94;59.35;98712.35;221263;1289;138197;-73
2023/06/21 07:02:36;;;;;;;13.90;12.70;;;;;;;28.32;58.61;98713.40;221278;1289;138305;-73
2023/06/21 07:07:38;;;;;;;13.40;12.20;;;;;;;28.53;57.39;98709.20;221425;1284;138187;-73
2023/06/21 07:12:40;;;;;;;14.20;12.80;;;;;;;28.55;56.91;98705.00;221528;1279;138361;-73
2023/06/21 07:17:42;;;;;;;14.00;12.60;;;;;;;28.62;56.47;98710.98;221677;1295;23063;-73
2023/06/21 07:22:44;;;;;;;15.20;12.40;;;;;;;28.75;56.65;98711.83;221602;1282;138550;-73
2023/06/21 07:27:49;;;;;;;14.20;12.90;;;;;;;29.10;56.83;98703.98;221561;1289;138497;-73
2023/06/21 07:32:52;;;;;;;15.00;13.50;;;;;;;29.33;55.91;98706.20;221398;1295;138355;-73
2023/06/21 07:37:54;;;;;;;13.10;12.00;;;;;;;29.52;55.87;98705.35;221679;1285;138396;-72
2023/06/21 07:42:56;;;;;;;13.50;12.10;;;;;;;29.66;55.62;98703.23;221575;1289;138172;-73
2023/06/21 07:47:57;;;;;;;17.90;14.40;;;;;;;29.89;55.95;98704.85;221502;1283;138172;-72
2023/06/21 07:52:59;;;;;;;18.30;13.50;;;;;;;30.08;55.30;98708.86;221649;1294;22593;-73
2023/06/21 07:58:01;;;;;;;17.20;12.80;;;;;;;30.06;54.35;98710.98;221420;1301;137990;-73
2023/06/21 08:03:03;;;;;;;23.70;13.00;;;;;;;29.88;53.90;98718.34;221493;1282;138256;-72
2023/06/21 08:08:05;;;;;;;12.30;11.20;;;;;;;29.65;53.74;98720.84;221684;1301;138336;-73
2023/06/21 08:13:10;;;;;;;13.50;11.70;;;;;;;29.50;54.15;98712.48;221780;1302;138243;-72
2023/06/21 08:18:13;;;;;;;12.50;11.30;;;;;;;29.49;53.98;98712.73;221692;1295;138281;-72
2023/06/21 08:23:15;;;;;;;17.80;12.00;;;;;;;29.46;54.07;98716.18;221807;1301;23397;-73
2023/06/21 08:28:17;;;;;;;12.70;11.40;;;;;;;29.54;53.93;98715.31;221612;1301;138208;-73
2023/06/21 08:33:19;;;;;;;13.60;12.20;;;;;;;29.60;53.77;98719.38;221701;1295;138064;-73
2023/06/21 08:38:21;;;;;;;13.60;12.10;;;;;;;29.57;53.42;98728.02;221689;1298;138171;-72
2023/06/21 08:43:30;;;;;;;19.20;13.10;;;;;;;29.54;53.65;98738.61;221733;1296;138326;-72
2023/06/21 08:48:35;;;;;;;14.10;12.00;;;;;;;29.47;53.71;98738.70;221554;1296;138284;-75
2023/06/21 08:53:56;;;;;;;16.30;12.50;;;;;;;29.37;53.91;98751.09;221618;1289;22612;-73
2023/06/21 08:59:06;;;;;;;16.60;12.60;;;;;;;29.24;54.12;98758.81;221944;1283;22569;-71
2023/06/21 09:04:15;;;;;;;14.40;12.10;;;;;;;29.07;54.74;98761.23;221704;1292;137838;-72
2023/06/21 09:09:20;;;;;;;14.40;12.80;;;;;;;28.95;54.99;98766.64;221734;1295;138279;-72
2023/06/21 09:14:22;;;;;;;14.70;13.10;;;;;;;28.86;55.49;98764.38;221763;1298;138260;-73
2023/06/21 09:19:27;;;;;;;15.00;12.60;;;;;;;28.84;55.84;98767.17;221401;1298;138281;-73
2023/06/21 09:24:29;;;;;;;15.80;12.80;;;;;;;28.74;55.98;98771.84;221487;1296;138300;-73
2023/06/21 09:29:32;;;;;;;15.70;12.90;;;;;;;28.51;55.85;98776.93;222053;1298;23287;-73
2023/06/21 09:34:38;;;;;;;16.00;13.20;;;;;;;28.21;56.18;98777.55;221946;1298;137829;-73
2023/06/21 09:39:40;;;;;;;17.60;14.40;;;;;;;27.87;56.88;98793.05;221594;1295;138088;-73
2023/06/21 09:44:42;;;;;;;15.60;14.10;;;;;;;27.46;58.34;98786.77;221464;1291;138170;-73
2023/06/21 09:49:48;;;;;;;16.90;14.80;;;;;;;27.04;59.80;98776.27;221829;1295;138258;-73
2023/06/21 09:54:50;;;;;;;26.70;18.60;;;;;;;26.63;60.91;98774.37;221934;1295;138160;-73
2023/06/21 09:59:52;;;;;;;19.60;15.00;;;;;;;26.39;61.97;98774.77;221841;1301;22693;-73
2023/06/21 10:04:54;;;;;;;17.40;15.50;;;;;;;26.25;62.78;98790.42;221592;1289;138054;-73
2023/06/21 10:10:05;;;;;;;15.70;14.20;;;;;;;26.09;63.38;98820.94;221716;1298;139070;-73
2023/06/21 10:15:09;;;;;;;18.30;14.10;;;;;;;25.82;63.59;98832.27;221667;1295;139078;-73
2023/06/21 10:20:15;;;;;;;15.80;14.40;;;;;;;25.55;64.24;98839.87;221715;1301;138912;-72
2023/06/21 10:25:20;;;;;;;19.60;16.10;;;;;;;25.38;64.82;98862.08;221789;1301;138978;-73
2023/06/21 10:30:23;;;;;;;26.90;13.50;;;;;;;25.27;65.72;98890.39;221701;1301;139054;-73
2023/06/21 10:35:33;;;;;;;16.40;14.20;;;;;;;25.17;66.38;98898.91;221804;1302;22952;-72
2023/06/21 10:40:36;;;;;;;18.30;16.70;;;;;;;24.99;66.50;98865.70;221714;1301;138567;-73
2023/06/21 10:45:40;;;;;;;18.30;16.60;;;;;;;24.93;67.51;98861.34;221271;1302;138765;-72
2023/06/21 10:50:43;;;;;;;18.80;16.90;;;;;;;24.95;68.24;98881.23;221487;1302;138921;-74
2023/06/21 10:55:46;;;;;;;31.70;23.40;;;;;;;25.17;68.38;98843.94;221715;1288;138888;-73
2023/06/21 11:00:50;;;;;;;32.10;18.40;;;;;;;25.64;68.62;98842.61;221851;1279;139423;-74
2023/06/21 11:06:19;;;;;;;17.30;15.60;;;;;;;25.96;68.70;98846.10;221711;1300;23295;-74
2023/06/21 11:11:30;;;;;;;15.60;14.20;;;;;;;26.30;69.18;98822.34;221787;1301;24257;-74
2023/06/21 11:16:38;;;;;;;15.50;14.10;;;;;;;26.66;68.51;98818.42;221639;1298;138583;-74
2023/06/21 11:21:47;;;;;;;15.20;13.80;;;;;;;26.82;68.05;98796.06;221642;1299;138893;-73
2023/06/21 11:27:24;;;;;;;29.50;15.80;;;;;;;27.02;68.78;98789.39;221858;1299;139794;-76
2023/06/21 11:32:31;;;;;;;15.90;13.60;;;;;;;27.31;68.22;98781.91;221275;1303;138940;-75
2023/06/21 11:37:42;;;;;;;14.50;13.20;;;;;;;27.56;67.23;98766.08;221522;1301;138894;-74
2023/06/21 11:42:48;;;;;;;13.80;12.30;;;;;;;27.95;66.89;98765.08;221821;1295;138918;-74
2023/06/21 11:48:12;;;;;;;12.70;11.50;;;;;;;28.27;65.58;98759.77;221722;1299;24271;-74
2023/06/21 11:53:18;;;;;;;14.50;13.30;;;;;;;28.43;64.94;98754.70;221909;1301;25141;-75
2023/06/21 11:58:22;;;;;;;16.80;15.20;;;;;;;28.46;64.70;98751.91;221812;1298;137976;-74
2023/06/21 12:03:27;;;;;;;15.90;14.50;;;;;;;28.58;64.36;98749.16;221631;1298;138272;-75
2023/06/21 12:08:32;;;;;;;16.80;15.20;;;;;;;28.68;64.05;98745.31;221601;1301;138172;-74
2023/06/21 12:13:35;;;;;;;73.10;24.20;;;;;;;28.92;64.11;98746.44;221561;1295;138566;-74
2023/06/21 12:18:37;;;;;;;18.00;16.40;;;;;;;29.24;63.43;98753.31;221499;1282;138148;-75
2023/06/21 12:23:39;;;;;;;20.60;17.70;;;;;;;29.54;62.74;98756.42;221940;1295;24657;-75
2023/06/21 12:28:41;;;;;;;19.70;17.70;;;;;;;29.77;62.01;98747.30;221578;1295;137906;-74
2023/06/21 12:33:44;;;;;;;19.20;17.10;;;;;;;29.97;61.90;98748.51;221655;1279;138448;-74
2023/06/21 12:38:55;;;;;;;18.10;16.50;;;;;;;30.17;61.05;98755.02;221764;1295;138385;-74
2023/06/21 12:44:01;;;;;;;18.90;17.40;;;;;;;30.30;60.89;98754.21;221340;1298;138243;-75
2023/06/21 12:49:03;;;;;;;19.30;17.50;;;;;;;30.51;60.25;98752.98;221699;1298;138189;-74
2023/06/21 12:54:10;;;;;;;67.40;20.20;;;;;;;30.52;58.74;98750.83;221503;1289;139070;-75
2023/06/21 12:59:11;;;;;;;17.30;15.20;;;;;;;30.51;59.33;98755.66;221672;1279;22556;-73
2023/06/21 13:04:15;;;;;;;17.60;15.70;;;;;;;30.67;58.68;98758.30;221684;1282;138080;-73
2023/06/21 13:09:17;;;;;;;16.00;14.60;;;;;;;30.82;57.90;98757.15;221649;1301;138382;-73
2023/06/21 13:14:19;;;;;;;17.80;16.00;;;;;;;30.81;57.42;98768.93;221828;1288;138159;-72
2023/06/21 13:19:21;;;;;;;18.40;15.90;;;;;;;30.78;57.31;98776.75;221796;1288;138155;-72
2023/06/21 13:24:22;;;;;;;18.10;15.10;;;;;;;30.82;57.52;98777.80;221848;1295;138263;-74
2023/06/21 13:29:24;;;;;;;34.60;30.80;;;;;;;30.87;57.09;98777.23;221798;1291;25354;-73
2023/06/21 13:34:26;;;;;;;48.30;18.90;;;;;;;30.91;57.36;98774.34;221700;1295;137893;-73
2023/06/21 13:39:28;;;;;;;70.20;22.00;;;;;;;31.03;57.35;98766.31;221667;1292;138472;-74
2023/06/21 13:44:30;;;;;;;17.90;16.10;;;;;;;31.11;56.87;98762.36;221675;1296;138431;-73
2023/06/21 13:49:32;;;;;;;41.30;19.40;;;;;;;31.14;56.78;98760.14;221765;1292;138718;-72
2023/06/21 13:54:34;;;;;;;17.70;15.90;;;;;;;31.21;56.94;98753.50;221683;1298;139070;-71
2023/06/21 13:59:36;;;;;;;19.80;17.10;;;;;;;31.30;56.57;98753.73;221746;1292;22576;-71
2023/06/21 14:04:41;;;;;;;17.90;16.30;;;;;;;31.28;56.34;98741.70;221530;1296;138073;-70
2023/06/21 14:09:43;;;;;;;16.60;14.90;;;;;;;31.36;56.55;98735.81;221616;1301;138134;-71
2023/06/21 14:14:45;;;;;;;17.90;16.30;;;;;;;31.51;56.27;98726.90;221457;1301;138138;-71
2023/06/21 14:19:47;;;;;;;80.20;26.10;;;;;;;31.55;55.98;98731.21;221353;1302;138175;-71
2023/06/21 14:24:49;;;;;;;24.50;17.30;;;;;;;31.59;55.96;98737.70;221829;1291;23042;-71
2023/06/21 14:29:54;;;;;;;24.00;17.40;;;;;;;31.66;55.82;98745.98;221763;1295;22569;-72
2023/06/21 14:34:56;;;;;;;24.70;18.30;;;;;;;31.73;55.68;98746.95;222190;1302;22587;-70
2023/06/21 14:39:59;;;;;;;18.70;17.20;;;;;;;31.72;55.64;98743.97;222182;1300;22609;-71
2023/06/21 14:45:01;;;;;;;18.50;17.00;;;;;;;31.52;55.45;98743.17;221940;1298;23112;-72
2023/06/21 14:50:03;;;;;;;18.80;17.00;;;;;;;31.27;55.82;98730.65;222121;1301;22584;-71
2023/06/21 14:55:07;;;;;;;18.60;17.10;;;;;;;31.11;56.00;98723.86;222073;1301;22579;-71
2023/06/21 15:00:09;;;;;;;18.70;16.90;;;;;;;30.98;56.42;98729.68;222065;1301;22557;-71
2023/06/21 15:05:13;;;;;;;19.00;17.50;;;;;;;30.91;56.83;98738.80;222206;1302;22612;-72
2023/06/21 15:10:15;;;;;;;19.20;17.40;;;;;;;30.78;57.10;98741.06;222303;1301;24234;-71
2023/06/21 15:15:17;;;;;;;19.80;18.20;;;;;;;30.69;57.67;98745.63;222231;1299;23048;-71
2023/06/21 15:20:19;;;;;;;20.70;18.50;;;;;;;30.69;57.92;98744.60;222268;1301;23147;-70
2023/06/21 15:25:22;;;;;;;20.80;18.90;;;;;;;30.69;57.78;98743.22;222263;1302;22581;-71
2023/06/21 15:30:24;;;;;;;19.20;17.60;;;;;;;30.70;58.03;98743.41;222141;1298;22565;-71
2023/06/21 15:35:27;;;;;;;19.10;17.40;;;;;;;30.68;58.12;98724.92;222324;1295;22565;-70
2023/06/21 15:40:29;;;;;;;19.50;17.70;;;;;;;30.61;58.21;98714.02;222139;1301;22584;-71
2023/06/21 15:45:31;;;;;;;20.20;18.10;;;;;;;30.47;58.13;98708.74;222018;1302;22576;-71
2023/06/21 15:50:33;;;;;;;19.80;18.00;;;;;;;30.36;58.51;98706.53;222162;1302;22573;-71
2023/06/21 15:55:35;;;;;;;19.50;17.70;;;;;;;30.40;58.54;98697.42;221983;1302;22683;-70
2023/06/21 16:00:38;;;;;;;17.90;16.40;;;;;;;30.54;58.76;98699.23;222185;1301;22579;-71
2023/06/21 16:05:40;;;;;;;17.90;16.50;;;;;;;30.65;57.84;98700.17;222041;1301;22650;-71
2023/06/21 16:10:42;;;;;;;17.10;15.60;;;;;;;30.78;57.77;98703.25;222222;1301;22667;-71
2023/06/21 16:15:47;;;;;;;16.70;15.20;;;;;;;30.82;57.28;98704.53;222291;1295;23111;-69
2023/06/21 16:20:49;;;;;;;17.10;15.60;;;;;;;30.77;57.33;98711.69;222216;1299;22569;-71
2023/06/21 16:25:53;;;;;;;21.80;17.00;;;;;;;30.70;57.76;98737.15;222176;1301;22600;-70
2023/06/21 16:30:55;;;;;;;19.90;18.30;;;;;;;30.43;57.78;98756.25;222312;1295;22563;-70
2023/06/21 16:35:57;;;;;;;18.90;17.30;;;;;;;30.07;58.37;98753.46;222123;1302;22564;-71
2023/06/21 16:40:59;;;;;;;19.80;18.00;;;;;;;29.82;58.90;98745.52;222146;1301;23354;-71
2023/06/21 16:46:01;;;;;;;20.20;18.10;;;;;;;29.63;59.65;98746.50;222139;1302;22628;-70
2023/06/21 16:51:03;;;;;;;19.10;17.40;;;;;;;29.46;59.92;98737.73;221999;1302;22627;-71
2023/06/21 16:56:05;;;;;;;18.50;16.90;;;;;;;29.35;60.49;98739.74;222048;1298;22562;-70
2023/06/21 17:01:10;;;;;;;20.00;18.40;;;;;;;29.24;60.39;98757.05;222167;1301;22576;-70
2023/06/21 17:06:12;;;;;;;19.70;18.00;;;;;;;29.07;60.58;98755.41;222220;1302;22578;-70
2023/06/21 17:11:14;;;;;;;19.20;17.30;;;;;;;28.90;61.06;98758.46;222187;1300;22576;-70
2023/06/21 17:16:16;;;;;;;20.80;18.70;;;;;;;28.73;61.20;98756.38;222138;1301;22573;-70
2023/06/21 17:21:18;;;;;;;19.20;17.40;;;;;;;28.53;61.59;98754.02;222265;1299;22590;-70
2023/06/21 17:26:20;;;;;;;19.10;17.40;;;;;;;28.34;62.04;98757.89;222224;1303;22580;-70
2023/06/21 17:31:22;;;;;;;20.40;18.50;;;;;;;28.15;62.27;98751.22;222190;1302;22565;-71
2023/06/21 17:36:24;;;;;;;20.80;18.80;;;;;;;27.94;62.70;98749.23;221906;1302;22584;-70
2023/06/21 17:41:26;;;;;;;17.60;16.20;;;;;;;27.73;63.07;98751.27;222217;1301;22742;-71
2023/06/21 17:46:29;;;;;;;15.20;13.80;;;;;;;27.49;63.21;98742.52;222225;1301;24313;-70
2023/06/21 17:51:31;;;;;;;14.60;13.00;;;;;;;27.25;63.27;98722.16;222116;1301;22594;-71
2023/06/21 17:56:32;;;;;;;11.90;10.90;;;;;;;27.07;63.13;98714.61;222123;1300;23042;-70
2023/06/21 18:01:34;;;;;;;12.50;11.00;;;;;;;26.89;62.80;98702.14;222179;1296;22600;-69
2023/06/21 18:06:36;;;;;;;12.60;11.30;;;;;;;26.77;62.99;98690.45;222242;1300;22633;-70
2023/06/21 18:11:39;;;;;;;12.10;10.60;;;;;;;26.68;62.84;98691.73;222271;1299;22580;-71
2023/06/21 18:16:41;;;;;;;12.00;10.80;;;;;;;26.52;62.94;98710.58;221946;1298;315352;-71
2023/06/21 18:21:43;;;;;;;12.10;10.30;;;;;;;26.33;63.38;98731.59;222191;1301;22594;-71
2023/06/21 18:26:45;;;;;;;11.80;10.80;;;;;;;26.16;63.84;98745.88;222189;1301;22571;-70
2023/06/21 18:31:46;;;;;;;12.60;11.40;;;;;;;25.96;64.07;98760.86;222096;1301;22573;-70
2023/06/21 18:36:48;;;;;;;12.90;11.70;;;;;;;25.76;64.73;98770.30;222335;1298;22578;-71
2023/06/21 18:41:51;;;;;;;14.10;12.00;;;;;;;25.55;65.36;98776.48;222274;1296;22559;-71
2023/06/21 18:46:53;;;;;;;12.30;11.20;;;;;;;25.43;65.88;98754.30;222243;1289;22632;-70
2023/06/21 18:51:55;;;;;;;12.80;11.50;;;;;;;25.30;66.32;98741.55;222059;1302;22598;-70
2023/06/21 18:56:57;;;;;;;12.80;11.50;;;;;;;25.14;66.73;98743.38;222306;1301;22576;-70
2023/06/21 19:01:59;;;;;;;15.20;11.20;;;;;;;25.02;67.02;98749.59;222232;1300;22560;-70
2023/06/21 19:07:01;;;;;;;13.30;12.00;;;;;;;24.90;67.27;98746.52;222281;1292;22586;-71
2023/06/21 19:12:04;;;;;;;11.80;10.70;;;;;;;24.84;67.53;98772.45;222175;1298;24932;-70
2023/06/21 19:17:09;;;;;;;12.70;11.50;;;;;;;24.76;67.99;98800.46;222020;1301;22565;-70
2023/06/21 19:22:13;;;;;;;12.40;11.20;;;;;;;24.69;68.09;98802.60;222280;1296;22563;-71
2023/06/21 19:27:16;;;;;;;12.40;11.10;;;;;;;24.61;68.04;98801.45;222212;1298;25261;-70
2023/06/21 19:32:19;;;;;;;10.70;9.70;;;;;;;24.51;68.13;98815.02;222194;1298;22565;-70
2023/06/21 19:37:22;;;;;;;11.20;9.70;;;;;;;24.40;68.27;98838.95;222039;1302;22652;-70
2023/06/21 19:42:24;;;;;;;10.30;9.10;;;;;;;24.26;68.32;98855.38;222197;1301;22581;-69
2023/06/21 19:47:28;;;;;;;12.10;10.90;;;;;;;24.17;68.40;98853.04;222257;1295;22570;-70
2023/06/21 19:52:30;;;;;;;11.60;10.30;;;;;;;24.08;68.66;98856.45;222207;1303;22656;-70
2023/06/21 19:57:32;;;;;;;11.50;10.20;;;;;;;23.95;69.11;98861.36;222241;1303;22568;-71
2023/06/21 20:02:34;;;;;;;12.00;10.80;;;;;;;23.83;69.37;98861.00;222190;1301;22739;-70
2023/06/21 20:07:36;;;;;;;12.10;10.00;;;;;;;23.73;69.78;98855.94;222238;1302;26725;-71
2023/06/21 20:12:38;;;;;;;11.30;9.90;;;;;;;23.58;70.10;98863.99;222007;1302;22573;-70
2023/06/21 20:17:44;;;;;;;12.20;9.00;;;;;;;23.41;70.52;98886.72;222125;1302;25392;-70
2023/06/21 20:22:48;;;;;;;10.10;9.00;;;;;;;23.27;70.95;98898.57;222161;1298;22780;-71
2023/06/21 20:27:50;;;;;;;9.70;8.80;;;;;;;23.13;71.22;98897.95;222245;1298;24318;-71
2023/06/21 20:32:55;;;;;;;10.80;8.70;;;;;;;22.99;71.48;98892.36;222199;1298;22569;-71
2023/06/21 20:37:57;;;;;;;9.50;8.60;;;;;;;22.83;71.96;98904.02;222178;1301;22580;-73
2023/06/21 20:43:07;;;;;;;7.70;7.10;;;;;;;22.65;72.40;98908.44;222166;1302;22613;-73
2023/06/21 20:48:09;;;;;;;8.20;7.40;;;;;;;22.44;72.74;98900.38;222140;1300;22576;-72
2023/06/21 20:53:11;;;;;;;9.60;8.10;;;;;;;22.30;72.88;98896.91;222162;1302;22712;-72
2023/06/21 20:58:13;;;;;;;8.80;7.90;;;;;;;22.13;73.62;98894.13;222038;1301;22573;-71
2023/06/21 21:03:17;;;;;;;9.50;8.50;;;;;;;21.94;74.45;98884.13;222162;1292;22620;-72
2023/06/21 21:08:19;;;;;;;13.00;9.90;;;;;;;21.78;75.06;98878.25;222233;1296;22569;-72
2023/06/21 21:13:21;;;;;;;12.50;10.10;;;;;;;21.65;75.67;98881.55;222014;1302;22580;-73
2023/06/21 21:18:23;;;;;;;14.00;10.10;;;;;;;21.53;76.26;98887.85;222083;1300;22576;-73
2023/06/21 21:23:25;;;;;;;12.10;10.80;;;;;;;21.44;76.62;98880.35;221979;1302;22553;-73
2023/06/21 21:28:27;;;;;;;17.00;15.10;;;;;;;21.35;77.00;98884.36;221991;1301;22573;-73
2023/06/21 21:33:31;;;;;;;14.70;11.80;;;;;;;21.28;77.34;98882.25;222250;1303;22798;-72
2023/06/21 21:38:34;;;;;;;12.70;11.40;;;;;;;21.20;77.81;98877.55;222292;1301;22552;-73
2023/06/21 21:43:39;;;;;;;13.30;11.90;;;;;;;21.15;78.38;98873.88;222198;1298;22599;-73
2023/06/21 21:48:48;;;;;;;14.20;12.00;;;;;;;21.11;78.60;98870.77;222028;1302;22573;-72
2023/06/21 21:53:50;;;;;;;;;;;;;;;21.06;78.74;98869.23;222285;1300;22575;-72
2023/06/21 21:59:20;;;;;;;13.80;12.40;;;;;;;21.00;78.89;98862.23;222301;1289;22594;-72
2023/06/21 22:04:22;;;;;;;18.90;12.30;;;;;;;20.95;79.19;98858.30;222305;1298;22558;-72
2023/06/21 22:09:35;;;;;;;14.70;12.10;;;;;;;20.90;79.40;98852.94;222253;1299;22573;-73
2023/06/21 22:14:41;;;;;;;16.00;12.20;;;;;;;20.84;79.44;98862.39;222342;1301;22942;-71
2023/06/21 22:20:05;;;;;;;14.90;11.50;;;;;;;20.82;79.67;98871.54;222197;1301;23131;-72
2023/06/21 22:25:13;;;;;;;13.90;11.50;;;;;;;20.82;79.94;98875.30;222272;1298;22562;-73
2023/06/21 22:30:17;;;;;;;16.10;12.10;;;;;;;20.81;79.86;98875.45;222205;1302;22586;-73
2023/06/21 22:35:19;;;;;;;13.20;11.60;;;;;;;20.81;79.98;98885.06;222085;1302;22590;-73
2023/06/21 22:40:21;;;;;;;15.00;12.30;;;;;;;20.83;79.98;98891.52;221978;1302;22566;-72
2023/06/21 22:45:26;;;;;;;13.60;12.20;;;;;;;20.86;80.05;98896.83;222002;1301;22596;-72
2023/06/21 22:50:28;;;;;;;12.70;11.30;;;;;;;20.88;80.02;98899.97;222270;1298;22589;-72
2023/06/21 22:55:31;;;;;;;13.70;12.20;;;;;;;20.87;79.96;98891.44;222186;1302;22594;-72
2023/06/21 23:00:33;;;;;;;13.90;12.10;;;;;;;20.86;80.02;98892.96;222289;1302;23434;-72
2023/06/21 23:05:35;;;;;;;15.70;11.90;;;;;;;20.83;80.00;98899.16;222213;1301;22591;-73